Terminal Aerodrome Forecast
Issued by NWS

Home | Current Version | Previous Version | Text Only | Print | Product List | Glossary Off
Versions: 1 2 3 4 5 6 7 8 9 10 11 12 13 14 15

155
FTUS43 KBIS 200530
TAFDIK
TAF
KDIK 200530Z 2006/2106 18003KT P6SM OVC090
     FM201300 11004KT P6SM BKN110
     FM201700 06008KT P6SM BKN120=

USA.gov is the U.S. government's official web portal to all federal, state and local government web resources and services.